sensor_id;sensor_type;location;lat;lon;timestamp;pressure;altitude;pressure_sealevel;temperature;humidity
46476;BME280;53376;51.114;14.738;2022-07-19T00:09:40;98972.91;;;25.19;34.34
46476;BME280;53376;51.114;14.738;2022-07-19T00:12:20;98971.41;;;25.17;34.21
46476;BME280;53376;51.114;14.738;2022-07-19T00:15:02;98972.59;;;25.14;34.10
46476;BME280;53376;51.114;14.738;2022-07-19T00:17:33;98974.63;;;25.12;34.25
46476;BME280;53376;51.114;14.738;2022-07-19T00:20:15;98975.81;;;25.09;34.10
46476;BME280;53376;51.114;14.738;2022-07-19T00:36:33;98962.09;;;24.94;34.46
46476;BME280;53376;51.114;14.738;2022-07-19T00:39:13;98970.94;;;24.97;34.54
46476;BME280;53376;51.114;14.738;2022-07-19T00:41:42;98961.25;;;24.94;34.25
46476;BME280;53376;51.114;14.738;2022-07-19T00:44:26;98959.72;;;24.91;34.60
46476;BME280;53376;51.114;14.738;2022-07-19T00:47:01;98964.47;;;24.89;34.16
46476;BME280;53376;51.114;14.738;2022-07-19T00:49:42;98966.88;;;24.84;34.75
46476;BME280;53376;51.114;14.738;2022-07-19T00:52:13;98959.03;;;24.81;34.81
46476;BME280;53376;51.114;14.738;2022-07-19T01:02:14;98956.66;;;24.70;34.40
46476;BME280;53376;51.114;14.738;2022-07-19T01:04:54;98955.16;;;24.67;34.88
46476;BME280;53376;51.114;14.738;2022-07-19T01:07:39;98952.25;;;24.60;34.49
46476;BME280;53376;51.114;14.738;2022-07-19T01:10:17;98958.69;;;24.59;34.70
46476;BME280;53376;51.114;14.738;2022-07-19T01:12:58;98951.56;;;24.58;34.92
46476;BME280;53376;51.114;14.738;2022-07-19T01:15:26;98952.75;;;24.56;34.91
46476;BME280;53376;51.114;14.738;2022-07-19T01:29:02;98958.34;;;24.46;34.80
46476;BME280;53376;51.114;14.738;2022-07-19T01:31:43;98961.75;;;24.48;35.04
46476;BME280;53376;51.114;14.738;2022-07-19T01:34:11;98968.53;;;24.44;34.80
46476;BME280;53376;51.114;14.738;2022-07-19T01:36:53;98969.56;;;24.43;35.22
46476;BME280;53376;51.114;14.738;2022-07-19T01:39:21;98963.63;;;24.39;35.19
46476;BME280;53376;51.114;14.738;2022-07-19T01:42:01;98964.81;;;24.37;34.97
46476;BME280;53376;51.114;14.738;2022-07-19T01:58:11;98954.75;;;24.29;35.24
46476;BME280;53376;51.114;14.738;2022-07-19T02:00:51;98948.16;;;24.23;35.38
46476;BME280;53376;51.114;14.738;2022-07-19T02:03:19;98951.88;;;24.22;35.15
46476;BME280;53376;51.114;14.738;2022-07-19T02:05:59;98943.91;;;24.21;35.52
46476;BME280;53376;51.114;14.738;2022-07-19T02:08:27;98948.47;;;24.20;35.19
46476;BME280;53376;51.114;14.738;2022-07-19T02:11:08;98948.81;;;24.17;35.54
46476;BME280;53376;51.114;14.738;2022-07-19T02:23:53;98951.50;;;24.09;35.60
46476;BME280;53376;51.114;14.738;2022-07-19T02:26:34;98956.25;;;24.07;35.46
46476;BME280;53376;51.114;14.738;2022-07-19T02:29:15;98958.31;;;24.05;35.58
46476;BME280;53376;51.114;14.738;2022-07-19T02:31:43;98953.88;;;24.04;35.77
46476;BME280;53376;51.114;14.738;2022-07-19T02:34:23;98950.47;;;24.02;35.53
46476;BME280;53376;51.114;14.738;2022-07-19T02:36:51;98942.50;;;24.00;35.49
46476;BME280;53376;51.114;14.738;2022-07-19T02:50:06;98944.63;;;23.88;35.63
46476;BME280;53376;51.114;14.738;2022-07-19T02:52:46;98947.03;;;23.91;35.90
46476;BME280;53376;51.114;14.738;2022-07-19T02:55:13;98956.91;;;23.92;35.76
46476;BME280;53376;51.114;14.738;2022-07-19T02:57:54;98951.78;;;23.89;36.11
46476;BME280;53376;51.114;14.738;2022-07-19T03:00:21;98954.13;;;23.84;36.11
46476;BME280;53376;51.114;14.738;2022-07-19T03:16:59;98955.75;;;23.69;36.03
46476;BME280;53376;51.114;14.738;2022-07-19T03:19:39;98947.63;;;23.69;36.39
46476;BME280;53376;51.114;14.738;2022-07-19T03:22:19;98954.09;;;23.67;36.35
46476;BME280;53376;51.114;14.738;2022-07-19T03:24:46;98962.22;;;23.67;36.17
46476;BME280;53376;51.114;14.738;2022-07-19T03:27:26;98956.63;;;23.69;36.21
46476;BME280;53376;51.114;14.738;2022-07-19T03:29:53;98961.19;;;23.69;36.06
46476;BME280;53376;51.114;14.738;2022-07-19T03:32:35;98955.09;;;23.66;36.11
46476;BME280;53376;51.114;14.738;2022-07-19T03:45:18;98958.47;;;23.60;35.87
46476;BME280;53376;51.114;14.738;2022-07-19T03:47:48;98955.06;;;23.58;36.20
46476;BME280;53376;51.114;14.738;2022-07-19T03:50:28;98957.06;;;23.56;36.19
46476;BME280;53376;51.114;14.738;2022-07-19T03:52:55;98960.81;;;23.55;36.33
46476;BME280;53376;51.114;14.738;2022-07-19T03:55:51;98951.66;;;23.56;36.23
46476;BME280;53376;51.114;14.738;2022-07-19T04:12:07;98958.41;;;23.52;36.39
46476;BME280;53376;51.114;14.738;2022-07-19T04:14:47;98961.13;;;23.52;36.37
46476;BME280;53376;51.114;14.738;2022-07-19T04:17:14;98967.44;;;23.53;36.43
46476;BME280;53376;51.114;14.738;2022-07-19T04:19:54;98964.72;;;23.53;36.12
46476;BME280;53376;51.114;14.738;2022-07-19T04:22:21;98976.22;;;23.55;36.00
46476;BME280;53376;51.114;14.738;2022-07-19T04:38:58;98974.53;;;23.54;36.71
46476;BME280;53376;51.114;14.738;2022-07-19T04:41:25;98969.97;;;23.54;36.34
46476;BME280;53376;51.114;14.738;2022-07-19T04:44:06;98962.84;;;23.53;36.39
46476;BME280;53376;51.114;14.738;2022-07-19T04:46:39;98963.69;;;23.54;36.35
46476;BME280;53376;51.114;14.738;2022-07-19T04:49:22;98968.97;;;23.55;36.67
46476;BME280;53376;51.114;14.738;2022-07-19T04:51:51;98968.97;;;23.55;36.34
46476;BME280;53376;51.114;14.738;2022-07-19T05:05:01;98968.97;;;23.63;36.41
46476;BME280;53376;51.114;14.738;2022-07-19T05:07:43;98964.25;;;23.65;36.43
46476;BME280;53376;51.114;14.738;2022-07-19T05:10:11;98965.59;;;23.70;36.81
46476;BME280;53376;51.114;14.738;2022-07-19T05:14:29;98958.50;;;23.77;36.51
46476;BME280;53376;51.114;14.738;2022-07-19T05:17:19;98954.84;;;23.86;36.60
46476;BME280;53376;51.114;14.738;2022-07-19T05:31:01;98944.44;;;24.24;35.90
46476;BME280;53376;51.114;14.738;2022-07-19T05:33:42;98943.75;;;24.30;35.78
46476;BME280;53376;51.114;14.738;2022-07-19T05:36:10;98938.47;;;24.37;35.82
46476;BME280;53376;51.114;14.738;2022-07-19T05:38:50;98945.13;;;24.43;35.89
46476;BME280;53376;51.114;14.738;2022-07-19T05:41:17;98946.28;;;24.49;35.86
46476;BME280;53376;51.114;14.738;2022-07-19T05:43:58;98933.03;;;24.54;36.09
46476;BME280;53376;51.114;14.738;2022-07-19T05:46:27;98932.38;;;24.60;36.18
46476;BME280;53376;51.114;14.738;2022-07-19T05:56:32;98934.94;;;24.86;36.05
46476;BME280;53376;51.114;14.738;2022-07-19T05:59:12;98941.53;;;24.92;36.07
46476;BME280;53376;51.114;14.738;2022-07-19T06:01:54;98939.66;;;25.01;36.26
46476;BME280;53376;51.114;14.738;2022-07-19T06:04:22;98934.19;;;25.09;36.34
46476;BME280;53376;51.114;14.738;2022-07-19T06:07:02;98944.69;;;25.20;36.18
46476;BME280;53376;51.114;14.738;2022-07-19T06:09:30;98938.22;;;25.30;36.04
46476;BME280;53376;51.114;14.738;2022-07-19T06:12:10;98944.34;;;25.40;36.21
46476;BME280;53376;51.114;14.738;2022-07-19T06:24:54;98949.19;;;25.92;35.77
46476;BME280;53376;51.114;14.738;2022-07-19T06:27:34;98951.53;;;26.04;35.41
46476;BME280;53376;51.114;14.738;2022-07-19T06:30:14;98955.56;;;26.16;35.40
46476;BME280;53376;51.114;14.738;2022-07-19T06:32:42;98959.56;;;26.29;35.24
46476;BME280;53376;51.114;14.738;2022-07-19T06:35:22;98961.88;;;26.40;35.06
46476;BME280;53376;51.114;14.738;2022-07-19T06:37:50;98965.84;;;26.52;35.30
46476;BME280;53376;51.114;14.738;2022-07-19T06:50:47;98963.94;;;27.14;35.09
46476;BME280;53376;51.114;14.738;2022-07-19T06:53:27;98958.22;;;27.24;35.09
46476;BME280;53376;51.114;14.738;2022-07-19T06:56:01;98959.25;;;27.38;34.39
46476;BME280;53376;51.114;14.738;2022-07-19T06:58:51;98964.94;;;27.51;35.05
46476;BME280;53376;51.114;14.738;2022-07-19T07:01:25;98961.72;;;27.63;34.72
46476;BME280;53376;51.114;14.738;2022-07-19T07:04:07;98960.88;;;27.77;34.59
46476;BME280;53376;51.114;14.738;2022-07-19T07:06:36;98963.09;;;27.89;33.91
46476;BME280;53376;51.114;14.738;2022-07-19T07:19:36;98956.75;;;28.40;33.89
46476;BME280;53376;51.114;14.738;2022-07-19T07:22:18;98956.81;;;28.46;33.77
46476;BME280;53376;51.114;14.738;2022-07-19T07:24:46;98952.22;;;28.54;33.97
46476;BME280;53376;51.114;14.738;2022-07-19T07:27:26;98957.78;;;28.60;33.80
46476;BME280;53376;51.114;14.738;2022-07-19T07:29:54;98949.84;;;28.66;33.32
46476;BME280;53376;51.114;14.738;2022-07-19T07:32:34;98955.78;;;28.69;33.19
46476;BME280;53376;51.114;14.738;2022-07-19T07:45:18;98942.91;;;28.91;33.52
46476;BME280;53376;51.114;14.738;2022-07-19T07:47:58;98947.97;;;28.94;33.58
46476;BME280;53376;51.114;14.738;2022-07-19T07:50:38;98953.91;;;28.98;34.15
46476;BME280;53376;51.114;14.738;2022-07-19T07:53:05;98953.91;;;28.98;33.91
46476;BME280;53376;51.114;14.738;2022-07-19T07:55:46;98948.66;;;29.03;34.27
46476;BME280;53376;51.114;14.738;2022-07-19T08:11:55;98955.31;;;29.16;33.70
46476;BME280;53376;51.114;14.738;2022-07-19T08:14:35;98950.91;;;29.21;34.14
46476;BME280;53376;51.114;14.738;2022-07-19T08:17:02;98948.63;;;29.25;34.25
46476;BME280;53376;51.114;14.738;2022-07-19T08:19:42;98951.63;;;29.30;34.25
46476;BME280;53376;51.114;14.738;2022-07-19T08:22:10;98952.50;;;29.37;34.33
46476;BME280;53376;51.114;14.738;2022-07-19T08:24:54;98947.94;;;29.45;34.55
46476;BME280;53376;51.114;14.738;2022-07-19T08:27:24;98947.13;;;29.51;34.67
46476;BME280;53376;51.114;14.738;2022-07-19T08:37:09;98931.66;;;29.85;33.41
46476;BME280;53376;51.114;14.738;2022-07-19T08:39:49;98938.06;;;29.99;33.79
46476;BME280;53376;51.114;14.738;2022-07-19T08:42:32;98943.56;;;30.12;33.45
46476;BME280;53376;51.114;14.738;2022-07-19T08:45:10;98935.38;;;30.26;33.19
46476;BME280;53376;51.114;14.738;2022-07-19T08:47:51;98934.56;;;30.38;32.64
46476;BME280;53376;51.114;14.738;2022-07-19T08:50:18;98930.19;;;30.51;32.51
46476;BME280;53376;51.114;14.738;2022-07-19T09:06:50;98930.38;;;31.10;31.06
46476;BME280;53376;51.114;14.738;2022-07-19T09:09:27;98920.03;;;31.12;29.84
46476;BME280;53376;51.114;14.738;2022-07-19T09:12:08;98931.44;;;31.15;30.09
46476;BME280;53376;51.114;14.738;2022-07-19T09:14:37;98930.16;;;31.18;29.63
46476;BME280;53376;51.114;14.738;2022-07-19T09:17:18;98929.72;;;31.21;29.23
46476;BME280;53376;51.114;14.738;2022-07-19T09:33:22;98934.31;;;31.41;28.92
46476;BME280;53376;51.114;14.738;2022-07-19T09:36:03;98924.59;;;31.45;28.38
46476;BME280;53376;51.114;14.738;2022-07-19T09:38:51;98918.66;;;31.48;27.79
46476;BME280;53376;51.114;14.738;2022-07-19T09:41:31;98924.97;;;31.55;27.99
46476;BME280;53376;51.114;14.738;2022-07-19T09:44:01;98926.88;;;31.61;29.19
46476;BME280;53376;51.114;14.738;2022-07-19T09:46:44;98926.88;;;31.61;28.16
46476;BME280;53376;51.114;14.738;2022-07-19T09:59:27;98921.13;;;31.76;28.41
46476;BME280;53376;51.114;14.738;2022-07-19T10:02:10;98921.94;;;31.83;28.01
46476;BME280;53376;51.114;14.738;2022-07-19T10:04:53;98918.09;;;31.91;27.96
46476;BME280;53376;51.114;14.738;2022-07-19T10:07:21;98916.97;;;31.99;27.68
46476;BME280;53376;51.114;14.738;2022-07-19T10:10:07;98904.91;;;32.07;28.21
46476;BME280;53376;51.114;14.738;2022-07-19T10:12:44;98899.81;;;32.10;27.94
46476;BME280;53376;51.114;14.738;2022-07-19T10:26:04;98893.47;;;32.42;27.08
46476;BME280;53376;51.114;14.738;2022-07-19T10:28:44;98895.72;;;32.52;27.52
46476;BME280;53376;51.114;14.738;2022-07-19T10:31:38;98894.00;;;32.57;27.30
46476;BME280;53376;51.114;14.738;2022-07-19T10:34:22;98887.59;;;32.63;26.78
46476;BME280;53376;51.114;14.738;2022-07-19T10:36:49;98888.34;;;32.71;26.89
46476;BME280;53376;51.114;14.738;2022-07-19T10:56:39;98888.31;;;33.21;25.86
46476;BME280;53376;51.114;14.738;2022-07-19T10:59:35;98879.31;;;33.33;27.15
46476;BME280;53376;51.114;14.738;2022-07-19T11:02:24;98875.63;;;33.39;26.80
46476;BME280;53376;51.114;14.738;2022-07-19T11:05:21;98874.94;;;33.43;26.06
46476;BME280;53376;51.114;14.738;2022-07-19T11:07:50;98877.84;;;33.49;26.11
46476;BME280;53376;51.114;14.738;2022-07-19T11:17:50;98867.66;;;33.68;25.93
46476;BME280;53376;51.114;14.738;2022-07-19T11:20:33;98871.16;;;33.75;24.60
46476;BME280;53376;51.114;14.738;2022-07-19T11:23:18;98864.03;;;33.86;25.29
46476;BME280;53376;51.114;14.738;2022-07-19T11:26:04;98866.22;;;33.96;25.78
46476;BME280;53376;51.114;14.738;2022-07-19T11:28:47;98857.00;;;34.02;26.14
46476;BME280;53376;51.114;14.738;2022-07-19T11:31:23;98855.00;;;34.09;26.43
46476;BME280;53376;51.114;14.738;2022-07-19T11:44:39;98853.97;;;34.34;24.60
46476;BME280;53376;51.114;14.738;2022-07-19T11:47:20;98852.22;;;34.39;25.12
46476;BME280;53376;51.114;14.738;2022-07-19T11:49:48;98849.81;;;34.43;24.70
46476;BME280;53376;51.114;14.738;2022-07-19T11:52:28;98840.47;;;34.44;22.96
46476;BME280;53376;51.114;14.738;2022-07-19T11:55:16;98839.75;;;34.49;23.64
46476;BME280;53376;51.114;14.738;2022-07-19T11:57:57;98843.09;;;34.51;23.84
46476;BME280;53376;51.114;14.738;2022-07-19T12:11:17;98843.34;;;34.73;21.93
46476;BME280;53376;51.114;14.738;2022-07-19T12:14:00;98835.19;;;34.78;22.07
46476;BME280;53376;51.114;14.738;2022-07-19T12:16:40;98841.06;;;34.82;22.25
46476;BME280;53376;51.114;14.738;2022-07-19T12:19:10;98832.19;;;34.80;21.12
46476;BME280;53376;51.114;14.738;2022-07-19T12:21:51;98832.47;;;34.90;22.61
46476;BME280;53376;51.114;14.738;2022-07-19T12:24:20;98831.13;;;34.93;22.19
46476;BME280;53376;51.114;14.738;2022-07-19T12:27:06;98817.91;;;34.95;21.64
46476;BME280;53376;51.114;14.738;2022-07-19T12:40:04;98827.97;;;35.25;23.15
46476;BME280;53376;51.114;14.738;2022-07-19T12:42:50;98818.91;;;35.29;23.14
46476;BME280;53376;51.114;14.738;2022-07-19T12:45:33;98818.09;;;35.29;22.39
46476;BME280;53376;51.114;14.738;2022-07-19T12:48:02;98819.25;;;35.33;22.97
46476;BME280;53376;51.114;14.738;2022-07-19T12:50:45;98809.47;;;35.37;23.22
46476;BME280;53376;51.114;14.738;2022-07-19T13:06:54;98802.63;;;35.57;20.59
46476;BME280;53376;51.114;14.738;2022-07-19T13:09:36;98792.78;;;35.61;21.73
46476;BME280;53376;51.114;14.738;2022-07-19T13:12:11;98797.31;;;35.67;22.11
46476;BME280;53376;51.114;14.738;2022-07-19T13:14:53;98802.31;;;35.70;22.65
46476;BME280;53376;51.114;14.738;2022-07-19T13:17:20;98800.50;;;35.76;22.35
46476;BME280;53376;51.114;14.738;2022-07-19T13:33:59;98786.97;;;35.91;20.04
46476;BME280;53376;51.114;14.738;2022-07-19T13:36:27;98779.63;;;35.97;21.79
46476;BME280;53376;51.114;14.738;2022-07-19T13:39:07;98789.34;;;35.99;20.86
46476;BME280;53376;51.114;14.738;2022-07-19T13:41:35;98781.38;;;36.03;21.23
46476;BME280;53376;51.114;14.738;2022-07-19T13:44:26;98783.56;;;36.01;20.14
46476;BME280;53376;51.114;14.738;2022-07-19T13:47:00;98776.94;;;36.02;20.63
46476;BME280;53376;51.114;14.738;2022-07-19T14:00:14;98762.78;;;36.15;21.20
46476;BME280;53376;51.114;14.738;2022-07-19T14:02:54;98758.94;;;36.17;20.92
46476;BME280;53376;51.114;14.738;2022-07-19T14:05:22;98762.59;;;36.22;21.12
46476;BME280;53376;51.114;14.738;2022-07-19T14:08:02;98764.13;;;36.30;22.11
46476;BME280;53376;51.114;14.738;2022-07-19T14:10:30;98760.72;;;36.40;23.00
46476;BME280;53376;51.114;14.738;2022-07-19T14:27:07;98751.78;;;36.94;22.56
46476;BME280;53376;51.114;14.738;2022-07-19T14:29:47;98748.81;;;37.01;22.76
46476;BME280;53376;51.114;14.738;2022-07-19T14:32:27;98751.97;;;37.09;23.02
46476;BME280;53376;51.114;14.738;2022-07-19T14:34:54;98750.94;;;37.16;22.57
46476;BME280;53376;51.114;14.738;2022-07-19T14:37:34;98749.91;;;37.22;22.82
46476;BME280;53376;51.114;14.738;2022-07-19T14:53:43;98748.13;;;37.10;21.36
46476;BME280;53376;51.114;14.738;2022-07-19T14:56:32;98744.75;;;37.08;21.05
46476;BME280;53376;51.114;14.738;2022-07-19T14:59:06;98745.84;;;37.07;21.74
46476;BME280;53376;51.114;14.738;2022-07-19T15:01:47;98741.78;;;37.15;22.47
46476;BME280;53376;51.114;14.738;2022-07-19T15:04:14;98745.72;;;37.19;22.16
46476;BME280;53376;51.114;14.738;2022-07-19T15:06:55;98751.03;;;37.26;22.84
46476;BME280;53376;51.114;14.738;2022-07-19T15:19:41;98732.81;;;37.30;21.08
46476;BME280;53376;51.114;14.738;2022-07-19T15:22:22;98729.03;;;37.36;20.89
46476;BME280;53376;51.114;14.738;2022-07-19T15:25:05;98721.91;;;37.46;20.60
46476;BME280;53376;51.114;14.738;2022-07-19T15:27:33;98719.19;;;37.51;21.17
46476;BME280;53376;51.114;14.738;2022-07-19T15:30:15;98718.13;;;37.57;21.26
46476;BME280;53376;51.114;14.738;2022-07-19T15:32:50;98715.94;;;37.59;20.35
46476;BME280;53376;51.114;14.738;2022-07-19T15:46:02;98712.28;;;37.53;21.87
46476;BME280;53376;51.114;14.738;2022-07-19T15:48:42;98717.00;;;37.53;21.40
46476;BME280;53376;51.114;14.738;2022-07-19T15:51:11;98713.13;;;37.54;22.03
46476;BME280;53376;51.114;14.738;2022-07-19T15:53:51;98710.91;;;37.56;21.75
46476;BME280;53376;51.114;14.738;2022-07-19T15:56:18;98710.41;;;37.59;21.83
46476;BME280;53376;51.114;14.738;2022-07-19T15:58:58;98706.75;;;37.53;20.96
46476;BME280;53376;51.114;14.738;2022-07-19T16:01:28;98711.19;;;37.54;21.85
46476;BME280;53376;51.114;14.738;2022-07-19T16:14:28;98695.97;;;37.57;20.18
46476;BME280;53376;51.114;14.738;2022-07-19T16:17:17;98697.59;;;37.53;20.69
46476;BME280;53376;51.114;14.738;2022-07-19T16:19:52;98700.38;;;37.53;20.24
46476;BME280;53376;51.114;14.738;2022-07-19T16:22:32;98703.19;;;37.58;21.93
46476;BME280;53376;51.114;14.738;2022-07-19T16:25:00;98698.78;;;37.62;21.85
46476;BME280;53376;51.114;14.738;2022-07-19T16:27:43;98691.03;;;37.64;21.37
46476;BME280;53376;51.114;14.738;2022-07-19T16:40:27;98690.44;;;37.57;21.97
46476;BME280;53376;51.114;14.738;2022-07-19T16:43:07;98690.69;;;37.55;22.21
46476;BME280;53376;51.114;14.738;2022-07-19T16:45:47;98690.97;;;37.54;21.07
46476;BME280;53376;51.114;14.738;2022-07-19T16:48:15;98686.56;;;37.58;21.51
46476;BME280;53376;51.114;14.738;2022-07-19T16:50:55;98689.38;;;37.63;22.05
46476;BME280;53376;51.114;14.738;2022-07-19T17:07:04;98699.00;;;37.83;23.05
46476;BME280;53376;51.114;14.738;2022-07-19T17:09:44;98692.94;;;37.86;23.17
46476;BME280;53376;51.114;14.738;2022-07-19T17:12:38;98683.81;;;37.90;23.39
46476;BME280;53376;51.114;14.738;2022-07-19T17:15:19;98685.25;;;37.98;23.44
46476;BME280;53376;51.114;14.738;2022-07-19T17:17:47;98685.59;;;38.07;23.52
46476;BME280;53376;51.114;14.738;2022-07-19T17:20:27;98693.19;;;38.22;23.37
46476;BME280;53376;51.114;14.738;2022-07-19T17:22:57;98696.91;;;38.33;22.95
46476;BME280;53376;51.114;14.738;2022-07-19T17:32:42;98693.88;;;38.98;22.41
46476;BME280;53376;51.114;14.738;2022-07-19T17:35:22;98695.84;;;39.18;21.90
46476;BME280;53376;51.114;14.738;2022-07-19T17:38:04;98693.97;;;39.34;21.70
46476;BME280;53376;51.114;14.738;2022-07-19T17:40:40;98690.94;;;39.46;21.90
46476;BME280;53376;51.114;14.738;2022-07-19T17:43:20;98702.59;;;39.32;22.14
46476;BME280;53376;51.114;14.738;2022-07-19T17:45:48;98699.13;;;38.99;22.33
46476;BME280;53376;51.114;14.738;2022-07-19T17:59:00;98698.06;;;37.45;24.56
46476;BME280;53376;51.114;14.738;2022-07-19T18:01:40;98707.81;;;37.25;24.62
46476;BME280;53376;51.114;14.738;2022-07-19T18:04:08;98704.31;;;37.07;24.69
46476;BME280;53376;51.114;14.738;2022-07-19T18:06:47;98700.19;;;36.88;24.95
46476;BME280;53376;51.114;14.738;2022-07-19T18:09:14;98700.00;;;36.72;24.88
46476;BME280;53376;51.114;14.738;2022-07-19T18:11:54;98706.16;;;36.57;25.38
46476;BME280;53376;51.114;14.738;2022-07-19T18:28:00;98705.19;;;35.78;25.95
46476;BME280;53376;51.114;14.738;2022-07-19T18:30:34;98710.56;;;35.68;25.78
46476;BME280;53376;51.114;14.738;2022-07-19T18:33:09;98708.69;;;35.57;25.89
46476;BME280;53376;51.114;14.738;2022-07-19T18:35:52;98710.19;;;35.47;26.05
46476;BME280;53376;51.114;14.738;2022-07-19T18:38:20;98713.34;;;35.39;26.51
46476;BME280;53376;51.114;14.738;2022-07-19T18:41:00;98707.97;;;35.32;26.20
46476;BME280;53376;51.114;14.738;2022-07-19T18:53:44;98715.22;;;34.93;26.65
46476;BME280;53376;51.114;14.738;2022-07-19T18:56:24;98714.47;;;34.85;26.16
46476;BME280;53376;51.114;14.738;2022-07-19T18:59:04;98712.09;;;34.77;26.88
46476;BME280;53376;51.114;14.738;2022-07-19T19:01:31;98725.78;;;34.72;26.34
46476;BME280;53376;51.114;14.738;2022-07-19T19:04:11;98719.53;;;34.65;26.33
46476;BME280;53376;51.114;14.738;2022-07-19T19:06:39;98721.59;;;34.58;26.63
46476;BME280;53376;51.114;14.738;2022-07-19T19:19:51;98728.56;;;34.25;26.72
46476;BME280;53376;51.114;14.738;2022-07-19T19:22:31;98729.53;;;34.18;27.06
46476;BME280;53376;51.114;14.738;2022-07-19T19:24:59;98724.34;;;34.10;26.74
46476;BME280;53376;51.114;14.738;2022-07-19T19:27:40;98730.34;;;34.07;27.25
46476;BME280;53376;51.114;14.738;2022-07-19T19:30:10;98731.28;;;34.01;27.29
46476;BME280;53376;51.114;14.738;2022-07-19T19:32:51;98732.25;;;33.95;27.12
46476;BME280;53376;51.114;14.738;2022-07-19T19:45:50;98725.22;;;33.68;26.93
46476;BME280;53376;51.114;14.738;2022-07-19T19:48:31;98731.44;;;33.64;26.97
46476;BME280;53376;51.114;14.738;2022-07-19T19:51:11;98723.03;;;33.58;27.34
46476;BME280;53376;51.114;14.738;2022-07-19T19:53:39;98720.16;;;33.53;27.11
46476;BME280;53376;51.114;14.738;2022-07-19T19:56:20;98729.13;;;33.49;27.01
46476;BME280;53376;51.114;14.738;2022-07-19T19:58:47;98728.16;;;33.43;27.36
46476;BME280;53376;51.114;14.738;2022-07-19T20:01:30;98724.16;;;33.39;27.66
46476;BME280;53376;51.114;14.738;2022-07-19T20:14:21;98728.03;;;33.19;27.77
46476;BME280;53376;51.114;14.738;2022-07-19T20:17:03;98731.72;;;33.13;27.71
46476;BME280;53376;51.114;14.738;2022-07-19T20:19:44;98733.25;;;33.09;27.45
46476;BME280;53376;51.114;14.738;2022-07-19T20:22:11;98733.72;;;33.06;27.58
46476;BME280;53376;51.114;14.738;2022-07-19T20:24:51;98740.75;;;33.02;27.50
46476;BME280;53376;51.114;14.738;2022-07-19T20:27:19;98739.53;;;32.98;27.77
46476;BME280;53376;51.114;14.738;2022-07-19T20:40:31;98727.91;;;32.77;27.65
46476;BME280;53376;51.114;14.738;2022-07-19T20:43:14;98722.25;;;32.72;27.57
46476;BME280;53376;51.114;14.738;2022-07-19T20:45:42;98729.28;;;32.68;27.59
46476;BME280;53376;51.114;14.738;2022-07-19T20:48:24;98733.56;;;32.63;27.90
46476;BME280;53376;51.114;14.738;2022-07-19T20:50:52;98732.31;;;32.59;28.02
46476;BME280;53376;51.114;14.738;2022-07-19T21:07:29;98727.13;;;32.33;28.31
46476;BME280;53376;51.114;14.738;2022-07-19T21:10:28;98725.88;;;32.28;28.24
46476;BME280;53376;51.114;14.738;2022-07-19T21:13:12;98733.53;;;32.26;28.03
46476;BME280;53376;51.114;14.738;2022-07-19T21:15:46;98731.44;;;32.22;27.93
46476;BME280;53376;51.114;14.738;2022-07-19T21:18:26;98731.25;;;32.17;28.35
46476;BME280;53376;51.114;14.738;2022-07-19T21:20:53;98729.81;;;32.14;28.45
46476;BME280;53376;51.114;14.738;2022-07-19T21:34:05;98736.91;;;31.96;28.18
46476;BME280;53376;51.114;14.738;2022-07-19T21:36:46;98733.78;;;31.93;28.30
46476;BME280;53376;51.114;14.738;2022-07-19T21:39:13;98735.53;;;31.87;28.48
46476;BME280;53376;51.114;14.738;2022-07-19T21:41:53;98735.13;;;31.83;28.46
46476;BME280;53376;51.114;14.738;2022-07-19T21:44:20;98737.47;;;31.80;28.54
46476;BME280;53376;51.114;14.738;2022-07-19T21:47:04;98737.31;;;31.75;28.39
46476;BME280;53376;51.114;14.738;2022-07-19T21:59:49;98742.22;;;31.59;28.61
46476;BME280;53376;51.114;14.738;2022-07-19T22:02:38;98750.69;;;31.58;28.73
46476;BME280;53376;51.114;14.738;2022-07-19T22:05:18;98742.06;;;31.54;28.92
46476;BME280;53376;51.114;14.738;2022-07-19T22:07:46;98743.56;;;31.50;28.94
46476;BME280;53376;51.114;14.738;2022-07-19T22:10:25;98747.59;;;31.47;28.62
46476;BME280;53376;51.114;14.738;2022-07-19T22:12:52;98750.34;;;31.47;28.59
46476;BME280;53376;51.114;14.738;2022-07-19T22:26:20;98750.19;;;31.35;28.64
46476;BME280;53376;51.114;14.738;2022-07-19T22:29:00;98745.16;;;31.32;28.52
46476;BME280;53376;51.114;14.738;2022-07-19T22:31:42;98750.66;;;31.32;28.67
46476;BME280;53376;51.114;14.738;2022-07-19T22:34:23;98752.78;;;31.30;28.65
46476;BME280;53376;51.114;14.738;2022-07-19T22:36:51;98749.38;;;31.28;28.88
46476;BME280;53376;51.114;14.738;2022-07-19T22:39:31;98758.06;;;31.25;28.95
46476;BME280;53376;51.114;14.738;2022-07-19T22:42:01;98760.19;;;31.23;28.54
46476;BME280;53376;51.114;14.738;2022-07-19T22:55:11;98753.69;;;31.11;28.88
46476;BME280;53376;51.114;14.738;2022-07-19T22:57:53;98753.06;;;31.09;29.07
46476;BME280;53376;51.114;14.738;2022-07-19T23:00:20;98758.78;;;31.07;28.86
46476;BME280;53376;51.114;14.738;2022-07-19T23:03:01;98758.97;;;31.06;28.87
46476;BME280;53376;51.114;14.738;2022-07-19T23:05:29;98758.16;;;31.05;28.89
46476;BME280;53376;51.114;14.738;2022-07-19T23:08:10;98753.06;;;31.02;28.94
46476;BME280;53376;51.114;14.738;2022-07-19T23:20:54;98756.72;;;30.89;29.48
46476;BME280;53376;51.114;14.738;2022-07-19T23:23:34;98756.50;;;30.84;29.45
46476;BME280;53376;51.114;14.738;2022-07-19T23:26:14;98752.53;;;30.80;29.40
46476;BME280;53376;51.114;14.738;2022-07-19T23:28:42;98754.63;;;30.78;29.22
46476;BME280;53376;51.114;14.738;2022-07-19T23:31:23;98753.38;;;30.74;29.13
46476;BME280;53376;51.114;14.738;2022-07-19T23:47:32;98759.53;;;30.62;29.13